createdAt,value
2023-01-12T00:01:08.529Z,6.78
2023-01-12T00:03:35.236Z,6.63
2023-01-12T00:06:04.834Z,6.68
2023-01-12T00:08:32.254Z,6.83
2023-01-12T00:10:58.990Z,6.93
2023-01-12T00:13:25.761Z,7.01
2023-01-12T00:16:11.286Z,6.91
2023-01-12T00:18:38.002Z,6.86
2023-01-12T00:21:04.893Z,6.93
2023-01-12T00:23:31.690Z,6.80
2023-01-12T00:25:58.559Z,6.86
2023-01-12T00:28:25.351Z,6.86
2023-01-12T00:30:52.219Z,6.99
2023-01-12T00:33:39.591Z,7.05
2023-01-12T00:36:08.330Z,6.95
2023-01-12T00:38:36.272Z,7.18
2023-01-12T00:41:07.167Z,7.15
2023-01-12T00:43:52.521Z,7.08
2023-01-12T00:46:19.477Z,7.12
2023-01-12T00:48:46.169Z,7.21
2023-01-12T00:51:13.002Z,7.17
2023-01-12T00:53:39.671Z,7.13
2023-01-12T00:56:06.596Z,7.19
2023-01-12T00:58:33.580Z,7.31
2023-01-12T01:01:09.652Z,7.06
2023-01-12T01:03:36.517Z,6.96
2023-01-12T01:06:04.004Z,7.22
2023-01-12T01:08:31.112Z,7.26
2023-01-12T01:11:03.929Z,7.12
2023-01-12T01:13:31.097Z,6.77
2023-01-12T01:16:01.485Z,6.97
2023-01-12T01:18:28.374Z,7.15
2023-01-12T01:20:55.041Z,7.30
2023-01-12T01:23:22.489Z,7.29
2023-01-12T01:25:49.308Z,6.46
2023-01-12T01:28:16.286Z,7.05
2023-01-12T01:30:43.140Z,7.13
2023-01-12T01:33:09.898Z,6.78
2023-01-12T01:35:37.202Z,6.45
2023-01-12T01:38:03.985Z,6.64
2023-01-12T01:40:30.615Z,6.11
2023-01-12T01:42:57.517Z,6.55
2023-01-12T01:45:24.273Z,6.60
2023-01-12T01:47:52.538Z,5.72
2023-01-12T01:50:31.338Z,6.23
2023-01-12T01:53:00.771Z,6.00
2023-01-12T01:55:30.366Z,5.77
2023-01-12T01:58:00.157Z,6.21
2023-01-12T02:00:27.032Z,6.21
2023-01-12T02:02:55.335Z,6.44
2023-01-12T02:05:24.528Z,6.49
2023-01-12T02:07:53.147Z,6.56
2023-01-12T02:10:20.211Z,6.27
2023-01-12T02:13:06.200Z,5.96
2023-01-12T02:15:58.734Z,6.26
2023-01-12T02:18:32.939Z,6.25
2023-01-12T02:21:08.647Z,6.32
2023-01-12T02:23:49.622Z,6.28
2023-01-12T02:26:25.962Z,5.82
2023-01-12T02:29:11.612Z,5.93
2023-01-12T02:32:08.144Z,6.32
2023-01-12T02:34:53.503Z,6.44
2023-01-12T02:37:29.596Z,6.66
2023-01-12T02:40:00.060Z,6.77
2023-01-12T02:42:41.864Z,6.62
2023-01-12T02:45:32.553Z,6.90
2023-01-12T02:48:17.902Z,7.15
2023-01-12T02:51:04.485Z,7.17
2023-01-12T02:53:35.192Z,7.12
2023-01-12T02:56:04.048Z,7.19
2023-01-12T02:58:32.809Z,7.05
2023-01-12T03:01:01.020Z,6.94
2023-01-12T03:03:27.777Z,6.87
2023-01-12T03:05:55.463Z,6.91
2023-01-12T03:08:26.030Z,7.06
2023-01-12T03:10:52.765Z,7.00
2023-01-12T03:13:20.484Z,7.04
2023-01-12T03:15:50.007Z,7.13
2023-01-12T03:18:19.407Z,7.23
2023-01-12T03:20:57.770Z,7.21
2023-01-12T03:23:30.115Z,6.59
2023-01-12T03:25:57.846Z,6.81
2023-01-12T03:28:27.647Z,6.10
2023-01-12T03:31:01.912Z,5.32
2023-01-12T03:33:30.903Z,6.45
2023-01-12T03:35:57.923Z,6.23
2023-01-12T03:38:27.659Z,5.54
2023-01-12T03:41:00.615Z,5.77
2023-01-12T03:43:31.347Z,6.24
2023-01-12T03:46:01.778Z,6.42
2023-01-12T03:48:31.591Z,6.22
2023-01-12T03:51:12.108Z,6.48
2023-01-12T03:53:40.401Z,6.71
2023-01-12T03:56:08.890Z,6.91
2023-01-12T03:58:36.521Z,6.92
2023-01-12T04:01:03.972Z,6.43
2023-01-12T04:03:30.836Z,6.75
2023-01-12T04:05:57.575Z,6.88
2023-01-12T04:08:24.335Z,7.01
2023-01-12T04:10:51.084Z,7.18
2023-01-12T04:13:17.780Z,7.25
2023-01-12T04:15:44.612Z,7.25
2023-01-12T04:18:12.257Z,7.37
2023-01-12T04:20:39.439Z,7.39
2023-01-12T04:23:09.989Z,7.27
2023-01-12T04:25:36.896Z,7.20
2023-01-12T04:28:04.884Z,7.41
2023-01-12T04:30:32.742Z,7.26
2023-01-12T04:33:00.413Z,7.23
2023-01-12T04:35:27.965Z,7.28
2023-01-12T04:37:55.190Z,7.46
2023-01-12T04:40:21.912Z,7.44
2023-01-12T04:43:02.298Z,7.36
2023-01-12T04:45:30.545Z,7.31
2023-01-12T04:48:00.669Z,6.59
2023-01-12T04:50:27.386Z,6.99
2023-01-12T04:52:54.287Z,7.33
2023-01-12T04:55:21.110Z,7.28
2023-01-12T04:57:47.949Z,5.63
2023-01-12T05:00:15.702Z,6.59
2023-01-12T05:02:42.419Z,6.80
2023-01-12T05:05:09.409Z,7.11
2023-01-12T05:07:36.187Z,7.20
2023-01-12T05:10:21.934Z,7.01
2023-01-12T05:12:48.641Z,7.23
2023-01-12T05:15:15.353Z,7.30
2023-01-12T05:17:42.085Z,7.44
2023-01-12T05:20:09.420Z,7.48
2023-01-12T05:22:36.179Z,7.28
2023-01-12T05:25:02.932Z,7.43
2023-01-12T05:27:29.673Z,7.30
2023-01-12T05:29:59.734Z,7.41
2023-01-12T05:32:27.476Z,7.15
2023-01-12T05:34:54.726Z,6.61
2023-01-12T05:37:21.601Z,6.68
2023-01-12T05:39:48.441Z,7.01
2023-01-12T05:42:34.064Z,7.04
2023-01-12T05:45:00.859Z,6.95
2023-01-12T05:47:27.550Z,7.01
2023-01-12T05:49:54.287Z,6.44
2023-01-12T05:52:21.080Z,6.77
2023-01-12T05:54:48.391Z,6.59
2023-01-12T05:57:15.235Z,6.98
2023-01-12T05:59:41.990Z,6.80
2023-01-12T06:02:12.425Z,6.97
2023-01-12T06:04:39.496Z,6.91
2023-01-12T06:07:06.306Z,6.94
2023-01-12T06:09:33.307Z,6.83
2023-01-12T06:12:18.973Z,6.93
2023-01-12T06:14:46.976Z,6.47
2023-01-12T06:17:20.419Z,5.83
2023-01-12T06:19:47.842Z,6.37
2023-01-12T06:22:16.944Z,6.24
2023-01-12T06:24:46.214Z,6.39
2023-01-12T06:27:13.004Z,6.36
2023-01-12T06:29:39.717Z,6.38
2023-01-12T06:32:06.462Z,5.83
2023-01-12T06:34:35.591Z,6.12
2023-01-12T06:37:03.769Z,6.14
2023-01-12T06:39:30.920Z,6.45
2023-01-12T06:42:16.496Z,6.57
2023-01-12T06:44:43.297Z,6.50
2023-01-12T06:47:10.039Z,6.50
2023-01-12T06:49:36.767Z,5.37
2023-01-12T06:52:03.761Z,5.92
2023-01-12T06:54:31.310Z,6.18
2023-01-12T06:56:59.149Z,6.29
2023-01-12T06:59:26.033Z,6.20
2023-01-12T07:01:53.053Z,5.67
2023-01-12T07:04:19.894Z,6.17
2023-01-12T07:06:48.822Z,5.84
2023-01-12T07:09:16.102Z,6.08
2023-01-12T07:11:43.446Z,5.65
2023-01-12T07:14:10.470Z,5.89
2023-01-12T07:16:37.981Z,6.06
2023-01-12T07:19:05.173Z,6.25
2023-01-12T07:21:32.230Z,6.34
2023-01-12T07:23:59.799Z,6.14
2023-01-12T07:26:26.811Z,6.56
2023-01-12T07:29:14.740Z,6.09
2023-01-12T07:32:02.125Z,6.58
2023-01-12T07:34:45.181Z,6.24
2023-01-12T07:37:12.029Z,6.58
2023-01-12T07:39:39.274Z,6.72
2023-01-12T07:42:24.429Z,6.87
2023-01-12T07:44:51.341Z,6.82
2023-01-12T07:47:18.321Z,6.88
2023-01-12T07:49:49.534Z,6.92
2023-01-12T07:52:16.270Z,6.90
2023-01-12T07:54:48.621Z,7.00
2023-01-12T07:57:20.164Z,6.83
2023-01-12T07:59:47.039Z,6.83
2023-01-12T08:02:16.870Z,7.11
2023-01-12T08:04:44.648Z,7.51
2023-01-12T08:07:11.720Z,7.36
2023-01-12T08:09:38.816Z,7.31
2023-01-12T08:12:06.355Z,7.33
2023-01-12T08:14:37.374Z,7.07
2023-01-12T08:17:07.953Z,7.47
2023-01-12T08:19:39.468Z,7.41
2023-01-12T08:22:10.201Z,8.00
2023-01-12T08:24:39.972Z,7.53
2023-01-12T08:27:08.036Z,8.46
2023-01-12T08:29:54.956Z,8.59
2023-01-12T08:32:21.870Z,8.50
2023-01-12T08:34:50.721Z,8.66
2023-01-12T08:37:20.250Z,7.38
2023-01-12T08:39:49.606Z,7.90
2023-01-12T08:42:16.620Z,8.06
2023-01-12T08:44:44.167Z,8.14
2023-01-12T08:47:19.287Z,7.97
2023-01-12T08:49:46.590Z,8.48
2023-01-12T08:52:14.235Z,8.44
2023-01-12T08:54:41.467Z,8.68
2023-01-12T08:57:08.230Z,8.72
2023-01-12T08:59:37.144Z,8.33
2023-01-12T09:02:04.603Z,8.39
2023-01-12T09:04:31.891Z,8.77
2023-01-12T09:07:00.218Z,9.33
2023-01-12T09:09:27.473Z,9.74
2023-01-12T09:11:54.288Z,10.11
2023-01-12T09:14:21.389Z,9.92
2023-01-12T09:16:48.413Z,10.05
2023-01-12T09:19:15.923Z,10.60
2023-01-12T09:21:43.012Z,10.59
2023-01-12T09:24:10.984Z,10.55
2023-01-12T09:26:42.376Z,10.31
2023-01-12T09:29:10.911Z,10.62
2023-01-12T09:31:39.045Z,10.60
2023-01-12T09:34:05.923Z,10.40
2023-01-12T09:36:34.335Z,10.65
2023-01-12T09:39:03.366Z,10.26
2023-01-12T09:41:50.021Z,10.61
2023-01-12T09:44:37.241Z,10.72
2023-01-12T09:47:10.410Z,10.93
2023-01-12T09:49:40.671Z,10.99
2023-01-12T09:52:16.711Z,11.16
2023-01-12T09:54:43.853Z,11.31
2023-01-12T09:57:30.693Z,11.53
2023-01-12T10:00:09.330Z,11.94
2023-01-12T10:02:40.012Z,12.30
2023-01-12T10:05:38.581Z,12.09
2023-01-12T10:08:06.465Z,11.96
2023-01-12T10:10:33.215Z,12.00
2023-01-12T10:13:05.027Z,12.20
2023-01-12T10:15:38.835Z,11.93
2023-01-12T10:18:19.951Z,11.79
2023-01-12T10:20:46.811Z,12.33
2023-01-12T10:23:15.775Z,12.18
2023-01-12T10:25:47.438Z,12.58
2023-01-12T10:28:14.168Z,12.39
2023-01-12T10:30:41.311Z,12.30
2023-01-12T10:33:08.814Z,12.54
2023-01-12T10:35:37.632Z,12.70
2023-01-12T10:38:13.633Z,13.08
2023-01-12T10:40:40.445Z,13.45
2023-01-12T10:43:33.040Z,13.93
2023-01-12T10:46:02.962Z,14.26
2023-01-12T10:48:31.153Z,14.19
2023-01-12T10:50:59.405Z,14.20
2023-01-12T10:53:29.555Z,14.68
2023-01-12T10:55:56.737Z,14.59
2023-01-12T10:58:29.414Z,14.52
2023-01-12T11:00:56.647Z,14.90
2023-01-12T11:03:34.028Z,15.03
2023-01-12T11:06:19.052Z,15.16
2023-01-12T11:08:45.910Z,15.57
2023-01-12T11:11:32.473Z,15.89
2023-01-12T11:14:03.222Z,15.80
2023-01-12T11:16:41.462Z,16.03
2023-01-12T11:19:13.121Z,15.99
2023-01-12T11:21:42.813Z,16.22
2023-01-12T11:24:14.141Z,16.39
2023-01-12T11:26:55.068Z,16.41
2023-01-12T11:29:27.919Z,16.71
2023-01-12T11:31:58.029Z,16.83
2023-01-12T11:34:31.195Z,16.87
2023-01-12T11:37:13.872Z,16.68
2023-01-12T11:39:43.778Z,16.94
2023-01-12T11:42:37.373Z,16.90
2023-01-12T11:45:18.324Z,17.15
2023-01-12T11:47:49.100Z,17.23
2023-01-12T11:50:26.973Z,17.22
2023-01-12T11:52:54.886Z,17.70
2023-01-12T11:55:42.055Z,17.79
2023-01-12T11:58:17.654Z,17.69
2023-01-12T12:01:07.706Z,17.36
2023-01-12T12:03:43.563Z,17.61
2023-01-12T12:06:30.235Z,17.87
2023-01-12T12:09:00.473Z,17.82
2023-01-12T12:11:41.767Z,17.59
2023-01-12T12:14:29.263Z,17.67
2023-01-12T12:17:03.825Z,18.03
2023-01-12T12:19:34.222Z,18.36
2023-01-12T12:22:18.325Z,18.23
2023-01-12T12:25:00.555Z,18.28
2023-01-12T12:27:52.735Z,18.35
2023-01-12T12:30:40.125Z,18.38
2023-01-12T12:33:15.145Z,18.27
2023-01-12T12:35:49.983Z,18.30
2023-01-12T12:38:24.976Z,18.36
2023-01-12T12:41:41.411Z,18.44
2023-01-12T12:44:46.599Z,18.41
2023-01-12T12:47:32.377Z,18.26
2023-01-12T12:50:00.562Z,18.03
2023-01-12T12:52:35.195Z,18.03
2023-01-12T12:55:02.602Z,18.10
2023-01-12T12:58:03.321Z,18.00
2023-01-12T13:00:47.015Z,18.35
2023-01-12T13:03:32.525Z,18.25
2023-01-12T13:06:11.554Z,18.52
2023-01-12T13:08:39.146Z,18.41
2023-01-12T13:11:09.674Z,18.51
2023-01-12T13:13:38.294Z,18.48
2023-01-12T13:16:13.797Z,18.72
2023-01-12T13:18:42.443Z,18.59
2023-01-12T13:21:28.802Z,18.71
2023-01-12T13:24:19.044Z,18.60
2023-01-12T13:26:52.721Z,17.95
2023-01-12T13:29:29.141Z,17.77
2023-01-12T13:31:59.923Z,17.82
2023-01-12T13:34:42.513Z,17.80
2023-01-12T13:37:10.319Z,17.72
2023-01-12T13:39:39.908Z,16.79
2023-01-12T13:42:34.653Z,16.61
2023-01-12T13:45:02.487Z,16.56
2023-01-12T13:47:33.454Z,17.05
2023-01-12T13:50:02.316Z,17.24
2023-01-12T13:52:30.499Z,17.28
2023-01-12T13:55:02.322Z,17.38
2023-01-12T13:57:31.330Z,17.43
2023-01-12T14:00:09.315Z,17.19
2023-01-12T14:02:57.290Z,17.10
2023-01-12T14:05:44.223Z,16.81
2023-01-12T14:08:26.184Z,16.87
2023-01-12T14:11:04.177Z,16.63
2023-01-12T14:13:50.800Z,16.44
2023-01-12T14:17:04.977Z,16.32
2023-01-12T14:19:32.678Z,16.23
2023-01-12T14:22:04.882Z,16.09
2023-01-12T14:24:37.493Z,15.79
2023-01-12T14:27:17.348Z,16.21
2023-01-12T14:29:44.636Z,15.92
2023-01-12T14:32:13.075Z,16.00
2023-01-12T14:34:49.093Z,15.95
2023-01-12T14:37:26.891Z,16.00
2023-01-12T14:39:56.319Z,15.95
2023-01-12T14:42:42.074Z,15.98
2023-01-12T14:45:46.373Z,15.90
2023-01-12T14:48:30.082Z,15.72
2023-01-12T14:51:01.430Z,15.06
2023-01-12T14:53:39.295Z,14.98
2023-01-12T14:56:21.053Z,14.97
2023-01-12T14:58:48.132Z,14.89
2023-01-12T15:01:29.309Z,14.83
2023-01-12T15:03:56.232Z,14.81
2023-01-12T15:06:23.192Z,14.82
2023-01-12T15:08:54.456Z,14.75
2023-01-12T15:11:32.324Z,14.65
2023-01-12T15:14:01.953Z,14.66
2023-01-12T15:16:47.359Z,14.61
2023-01-12T15:19:32.714Z,14.46
2023-01-12T15:22:18.395Z,14.33
2023-01-12T15:25:03.702Z,14.26
2023-01-12T15:27:30.538Z,14.14
2023-01-12T15:29:57.491Z,13.84
2023-01-12T15:32:37.996Z,13.90
2023-01-12T15:35:17.415Z,13.75
2023-01-12T15:37:44.309Z,13.57
2023-01-12T15:40:14.297Z,13.50
2023-01-12T15:42:42.407Z,13.42
2023-01-12T15:45:29.843Z,13.25
2023-01-12T15:47:56.848Z,13.15
2023-01-12T15:50:24.035Z,13.16
2023-01-12T15:52:51.420Z,13.03
2023-01-12T15:55:19.399Z,12.13
2023-01-12T15:57:47.512Z,11.70
2023-01-12T16:00:15.849Z,11.63
2023-01-12T16:02:45.604Z,11.16
2023-01-12T16:05:13.699Z,10.74
2023-01-12T16:07:40.477Z,11.29
2023-01-12T16:10:07.714Z,10.58
2023-01-12T16:12:34.546Z,10.78
2023-01-12T16:15:01.283Z,10.04
2023-01-12T16:17:27.985Z,10.88
2023-01-12T16:19:54.816Z,11.16
2023-01-12T16:22:26.636Z,10.54
2023-01-12T16:24:54.591Z,9.43
2023-01-12T16:27:22.431Z,9.45
2023-01-12T16:29:49.444Z,9.38
2023-01-12T16:32:16.901Z,8.58
2023-01-12T16:34:43.723Z,9.05
2023-01-12T16:37:16.418Z,9.35
2023-01-12T16:39:43.489Z,9.60
2023-01-12T16:42:10.438Z,9.24
2023-01-12T16:44:38.166Z,8.92
2023-01-12T16:47:05.937Z,9.21
2023-01-12T16:49:36.097Z,8.62
2023-01-12T16:52:04.422Z,9.13
2023-01-12T16:54:31.272Z,9.43
2023-01-12T16:56:59.383Z,9.86
2023-01-12T16:59:28.615Z,9.50
2023-01-12T17:01:55.693Z,9.19
2023-01-12T17:04:22.630Z,8.68
2023-01-12T17:06:49.603Z,8.12
2023-01-12T17:09:16.912Z,8.66
2023-01-12T17:11:44.123Z,9.10
2023-01-12T17:14:24.795Z,8.95
2023-01-12T17:16:53.561Z,8.05
2023-01-12T17:19:20.722Z,8.05
2023-01-12T17:21:50.853Z,8.35
2023-01-12T17:24:19.956Z,8.33
2023-01-12T17:26:52.486Z,8.64
2023-01-12T17:29:20.777Z,8.81
2023-01-12T17:31:48.299Z,8.32
2023-01-12T17:34:15.636Z,7.93
2023-01-12T17:36:43.991Z,7.43
2023-01-12T17:39:10.837Z,7.62
2023-01-12T17:41:56.225Z,8.06
2023-01-12T17:44:23.206Z,7.82
2023-01-12T17:46:50.078Z,8.24
2023-01-12T17:49:16.898Z,8.59
2023-01-12T17:51:43.995Z,8.20
2023-01-12T17:54:12.153Z,8.47
2023-01-12T17:56:39.062Z,8.45
2023-01-12T17:59:06.381Z,8.59
2023-01-12T18:01:34.786Z,7.85
2023-01-12T18:04:02.032Z,8.37
2023-01-12T18:06:28.923Z,7.83
2023-01-12T18:09:02.145Z,7.78
2023-01-12T18:11:29.347Z,8.00
2023-01-12T18:13:56.268Z,8.38
2023-01-12T18:16:23.491Z,8.56
2023-01-12T18:18:51.661Z,7.94
2023-01-12T18:21:22.451Z,7.60
2023-01-12T18:23:50.569Z,8.24
2023-01-12T18:26:25.227Z,7.91
2023-01-12T18:28:52.718Z,7.84
2023-01-12T18:31:21.057Z,7.18
2023-01-12T18:33:51.747Z,7.05
2023-01-12T18:36:19.944Z,7.76
2023-01-12T18:38:46.868Z,7.94
2023-01-12T18:41:32.253Z,7.70
2023-01-12T18:44:02.114Z,7.77
2023-01-12T18:46:47.186Z,7.94
2023-01-12T18:49:14.018Z,7.65
2023-01-12T18:51:59.208Z,7.94
2023-01-12T18:54:26.099Z,7.34
2023-01-12T18:56:53.088Z,7.74
2023-01-12T18:59:19.769Z,7.79
2023-01-12T19:01:46.569Z,7.19
2023-01-12T19:04:15.599Z,7.34
2023-01-12T19:06:47.230Z,7.50
2023-01-12T19:09:32.735Z,7.52
2023-01-12T19:11:59.685Z,7.32
2023-01-12T19:14:45.792Z,7.74
2023-01-12T19:17:33.241Z,7.68
2023-01-12T19:20:09.077Z,7.40
2023-01-12T19:22:54.143Z,7.28
2023-01-12T19:25:40.973Z,7.00
2023-01-12T19:28:30.268Z,7.49
2023-01-12T19:31:01.290Z,7.44
2023-01-12T19:33:28.700Z,7.60
2023-01-12T19:35:55.605Z,7.68
2023-01-12T19:38:22.496Z,7.76
2023-01-12T19:40:55.786Z,7.91
2023-01-12T19:43:29.268Z,7.27
2023-01-12T19:45:59.058Z,7.32
2023-01-12T19:48:25.942Z,7.69
2023-01-12T19:50:54.016Z,7.92
2023-01-12T19:53:26.131Z,7.65
2023-01-12T19:55:53.349Z,7.86
2023-01-12T19:58:22.345Z,7.92
2023-01-12T20:00:50.813Z,7.86
2023-01-12T20:03:18.750Z,7.92
2023-01-12T20:05:47.933Z,8.06
2023-01-12T20:08:17.215Z,7.83
2023-01-12T20:10:45.807Z,7.98
2023-01-12T20:13:14.211Z,7.58
2023-01-12T20:15:42.919Z,7.84
2023-01-12T20:18:09.842Z,7.94
2023-01-12T20:20:37.039Z,7.78
2023-01-12T20:23:03.999Z,7.58
2023-01-12T20:25:30.984Z,7.77
2023-01-12T20:27:57.969Z,8.03
2023-01-12T20:30:37.429Z,8.05
2023-01-12T20:33:05.916Z,7.70
2023-01-12T20:35:33.050Z,7.49
2023-01-12T20:37:59.803Z,7.70
2023-01-12T20:40:28.232Z,7.92
2023-01-12T20:42:54.985Z,7.74
2023-01-12T20:45:21.782Z,7.84
2023-01-12T20:47:48.624Z,7.97
2023-01-12T20:50:15.941Z,8.03
2023-01-12T20:52:42.664Z,7.99
2023-01-12T20:55:09.548Z,7.97
2023-01-12T20:57:38.924Z,8.19
2023-01-12T21:00:06.953Z,7.96
2023-01-12T21:02:33.943Z,7.81
2023-01-12T21:05:00.663Z,8.16
2023-01-12T21:07:27.407Z,8.00
2023-01-12T21:09:54.119Z,8.03
2023-01-12T21:12:20.872Z,8.15
2023-01-12T21:14:47.586Z,7.96
2023-01-12T21:17:16.907Z,7.53
2023-01-12T21:19:43.726Z,7.38
2023-01-12T21:22:10.497Z,7.38
2023-01-12T21:24:38.712Z,7.48
2023-01-12T21:27:05.461Z,7.46
2023-01-12T21:29:32.326Z,7.20
2023-01-12T21:31:59.056Z,6.95
2023-01-12T21:34:25.978Z,7.37
2023-01-12T21:36:52.729Z,7.15
2023-01-12T21:39:19.504Z,7.07
2023-01-12T21:42:04.559Z,6.36
2023-01-12T21:44:31.315Z,6.27
2023-01-12T21:46:58.035Z,6.41
2023-01-12T21:49:25.062Z,6.60
2023-01-12T21:51:51.873Z,7.08
2023-01-12T21:54:18.653Z,6.67
2023-01-12T21:56:45.396Z,6.18
2023-01-12T21:59:12.785Z,6.57
2023-01-12T22:01:39.612Z,6.57
2023-01-12T22:04:07.002Z,7.05
2023-01-12T22:06:34.167Z,6.32
2023-01-12T22:09:01.254Z,6.31
2023-01-12T22:11:39.146Z,6.60
2023-01-12T22:14:05.851Z,6.75
2023-01-12T22:16:32.711Z,6.90
2023-01-12T22:18:59.736Z,7.10
2023-01-12T22:21:28.116Z,6.89
2023-01-12T22:23:55.023Z,6.94
2023-01-12T22:26:22.262Z,7.01
2023-01-12T22:28:49.334Z,6.93
2023-01-12T22:31:22.695Z,6.92
2023-01-12T22:33:55.091Z,5.69
2023-01-12T22:36:21.992Z,6.19
2023-01-12T22:38:48.692Z,6.20
2023-01-12T22:41:17.056Z,6.36
2023-01-12T22:43:45.048Z,6.78
2023-01-12T22:46:14.765Z,6.55
2023-01-12T22:48:41.793Z,6.35
2023-01-12T22:51:08.865Z,6.80
2023-01-12T22:53:35.852Z,6.76
2023-01-12T22:56:03.568Z,6.52
2023-01-12T22:58:30.846Z,6.30
2023-01-12T23:01:04.694Z,6.16
2023-01-12T23:03:31.637Z,6.63
2023-01-12T23:05:58.529Z,6.16
2023-01-12T23:08:25.592Z,5.77
2023-01-12T23:10:53.200Z,6.16
2023-01-12T23:13:21.571Z,6.57
2023-01-12T23:15:57.242Z,6.66
2023-01-12T23:18:29.004Z,6.83
2023-01-12T23:21:15.796Z,6.75
2023-01-12T23:23:42.613Z,7.20
2023-01-12T23:26:10.476Z,6.83
2023-01-12T23:28:41.334Z,6.83
2023-01-12T23:31:09.958Z,7.16
2023-01-12T23:33:37.479Z,7.01
2023-01-12T23:36:08.775Z,6.71
2023-01-12T23:38:35.867Z,6.68
2023-01-12T23:41:09.714Z,6.87
2023-01-12T23:43:37.100Z,6.83
2023-01-12T23:46:04.880Z,6.20
2023-01-12T23:48:31.743Z,6.29
2023-01-12T23:50:59.435Z,6.89
2023-01-12T23:53:26.807Z,6.47
2023-01-12T23:55:54.075Z,6.83
2023-01-12T23:58:21.035Z,7.03
